createdAt,value
2023-03-06T00:00:28.457Z,100704.97
2023-03-06T00:02:55.034Z,100706.16
2023-03-06T00:05:24.190Z,100703.69
2023-03-06T00:08:06.927Z,100709.91
2023-03-06T00:10:33.781Z,100701.00
2023-03-06T00:13:11.277Z,100708.81
2023-03-06T00:15:37.905Z,100707.00
2023-03-06T00:18:05.702Z,100705.28
2023-03-06T00:20:33.504Z,100706.16
2023-03-06T00:23:00.343Z,100707.63
2023-03-06T00:25:27.096Z,100698.44
2023-03-06T00:27:56.371Z,100706.84
2023-03-06T00:30:24.603Z,100711.84
2023-03-06T00:32:53.005Z,100709.91
2023-03-06T00:35:19.916Z,100705.75
2023-03-06T00:37:46.620Z,100710.06
2023-03-06T00:40:16.364Z,100699.63
2023-03-06T00:42:43.735Z,100706.34
2023-03-06T00:45:13.480Z,100705.59
2023-03-06T00:47:43.261Z,100702.09
2023-03-06T00:50:11.220Z,100701.88
2023-03-06T00:52:37.915Z,100706.88
2023-03-06T00:55:05.633Z,100707.41
2023-03-06T00:57:32.185Z,100692.22
2023-03-06T00:59:58.955Z,100694.78
2023-03-06T01:02:25.746Z,100694.69
2023-03-06T01:04:52.387Z,100692.84
2023-03-06T01:07:21.269Z,100693.81
2023-03-06T01:09:47.911Z,100688.47
2023-03-06T01:12:17.538Z,100680.22
2023-03-06T01:14:45.719Z,100684.28
2023-03-06T01:17:13.395Z,100676.16
2023-03-06T01:19:40.019Z,100674.22
2023-03-06T01:22:06.681Z,100674.97
2023-03-06T01:24:33.347Z,100665.97
2023-03-06T01:27:03.154Z,100663.78
2023-03-06T01:29:29.823Z,100657.25
2023-03-06T01:31:56.424Z,100658.88
2023-03-06T01:34:24.313Z,100648.19
2023-03-06T01:36:50.946Z,100653.63
2023-03-06T01:39:17.537Z,100649.38
2023-03-06T01:41:45.772Z,100644.47
2023-03-06T01:44:13.857Z,100636.56
2023-03-06T01:46:46.739Z,100637.56
2023-03-06T01:49:21.190Z,100635.94
2023-03-06T01:51:57.907Z,100628.38
2023-03-06T01:54:27.714Z,100632.97
2023-03-06T01:57:01.169Z,100633.84
2023-03-06T01:59:28.825Z,100624.88
2023-03-06T02:01:56.344Z,100614.19
2023-03-06T02:04:23.745Z,100617.81
2023-03-06T02:06:51.036Z,100618.44
2023-03-06T02:09:17.776Z,100611.16
2023-03-06T02:11:46.376Z,100605.81
2023-03-06T02:14:17.508Z,100599.88
2023-03-06T02:16:44.295Z,100594.38
2023-03-06T02:19:37.866Z,100594.91
2023-03-06T02:22:05.577Z,100590.78
2023-03-06T02:25:20.395Z,100594.00
2023-03-06T02:27:48.286Z,100588.66
2023-03-06T02:30:16.978Z,100593.13
2023-03-06T02:32:43.609Z,100595.69
2023-03-06T02:35:19.189Z,100601.88
2023-03-06T02:37:46.940Z,100596.53
2023-03-06T02:40:14.856Z,100601.28
2023-03-06T02:42:56.607Z,100594.31
2023-03-06T02:45:29.970Z,100592.88
2023-03-06T02:47:56.608Z,100576.56
2023-03-06T02:50:23.309Z,100583.09
2023-03-06T02:52:49.946Z,100570.78
2023-03-06T02:55:16.597Z,100574.91
2023-03-06T02:57:43.212Z,100570.75
2023-03-06T03:00:10.602Z,100562.00
2023-03-06T03:02:37.374Z,100563.84
2023-03-06T03:05:05.858Z,100560.31
2023-03-06T03:07:34.962Z,100555.06
2023-03-06T03:10:01.869Z,100557.84
2023-03-06T03:12:28.720Z,100561.38
2023-03-06T03:14:56.378Z,100562.25
2023-03-06T03:17:23.609Z,100564.91
2023-03-06T03:19:50.596Z,100559.78
2023-03-06T03:22:18.046Z,100558.94
2023-03-06T03:24:44.660Z,100560.88
2023-03-06T03:27:17.825Z,100563.44
2023-03-06T03:29:45.589Z,100558.09
2023-03-06T03:32:12.210Z,100566.09
2023-03-06T03:34:38.914Z,100553.69
2023-03-06T03:37:05.863Z,100553.59
2023-03-06T03:39:35.606Z,100546.78
2023-03-06T03:42:02.234Z,100551.28
2023-03-06T03:47:10.867Z,100539.50
2023-03-06T03:49:46.338Z,100543.88
2023-03-06T03:52:12.894Z,100545.94
2023-03-06T03:54:39.648Z,100540.06
2023-03-06T03:57:06.242Z,100539.69
2023-03-06T03:59:32.942Z,100540.88
2023-03-06T04:01:59.675Z,100533.19
2023-03-06T04:04:26.676Z,100533.53
2023-03-06T04:06:53.502Z,100531.31
2023-03-06T04:09:20.132Z,100520.00
2023-03-06T04:11:47.894Z,100527.06
2023-03-06T04:14:14.531Z,100521.72
2023-03-06T04:16:41.255Z,100520.84
2023-03-06T04:19:07.848Z,100525.44
2023-03-06T04:21:34.440Z,100522.91
2023-03-06T04:24:01.009Z,100521.19
2023-03-06T04:26:27.557Z,100526.63
2023-03-06T04:28:55.650Z,100523.97
2023-03-06T04:31:22.362Z,100527.97
2023-03-06T04:33:49.058Z,100527.56
2023-03-06T04:36:24.432Z,100525.44
2023-03-06T04:38:51.083Z,100514.34
2023-03-06T04:41:17.882Z,100517.75
2023-03-06T04:43:44.760Z,100516.28
2023-03-06T04:46:12.453Z,100518.41
2023-03-06T04:48:39.104Z,100524.81
2023-03-06T04:51:06.231Z,100519.59
2023-03-06T04:53:32.953Z,100515.97
2023-03-06T04:56:00.020Z,100523.97
2023-03-06T04:58:26.730Z,100521.31
2023-03-06T05:00:53.407Z,100514.47
2023-03-06T05:03:20.033Z,100512.91
2023-03-06T05:05:47.062Z,100516.59
2023-03-06T05:08:18.338Z,100518.53
2023-03-06T05:10:45.947Z,100514.28
2023-03-06T05:13:12.658Z,100508.94
2023-03-06T05:15:42.197Z,100513.53
2023-03-06T05:18:09.047Z,100503.94
2023-03-06T05:20:35.762Z,100501.81
2023-03-06T05:23:02.469Z,100501.94
2023-03-06T05:25:29.036Z,100508.13
2023-03-06T05:27:58.599Z,100506.53
2023-03-06T05:30:25.793Z,100504.81
2023-03-06T05:32:53.218Z,100506.72
2023-03-06T05:35:23.136Z,100504.28
2023-03-06T05:37:49.980Z,100496.72
2023-03-06T05:40:17.742Z,100495.22
2023-03-06T05:42:44.580Z,100491.97
2023-03-06T05:45:11.902Z,100480.81
2023-03-06T05:47:38.599Z,100496.69
2023-03-06T05:50:05.468Z,100497.13
2023-03-06T05:52:32.288Z,100496.91
2023-03-06T05:54:58.857Z,100495.63
2023-03-06T05:57:25.805Z,100501.72
2023-03-06T05:59:52.527Z,100508.44
2023-03-06T06:02:19.757Z,100502.78
2023-03-06T06:04:46.342Z,100499.47
2023-03-06T06:07:14.713Z,100503.09
2023-03-06T06:09:43.392Z,100500.84
2023-03-06T06:12:09.945Z,100500.28
2023-03-06T06:14:36.639Z,100503.06
2023-03-06T06:17:06.014Z,100500.28
2023-03-06T06:19:32.796Z,100503.94
2023-03-06T06:22:03.700Z,100501.03
2023-03-06T06:24:31.420Z,100503.53
2023-03-06T06:26:58.884Z,100506.81
2023-03-06T06:29:27.200Z,100504.88
2023-03-06T06:31:55.948Z,100504.88
2023-03-06T06:34:23.371Z,100506.69
2023-03-06T06:36:53.260Z,100505.00
2023-03-06T06:39:23.885Z,100512.03
2023-03-06T06:42:10.431Z,100506.47
2023-03-06T06:44:44.435Z,100510.75
2023-03-06T06:47:26.497Z,100505.88
2023-03-06T06:49:55.296Z,100508.03
2023-03-06T06:52:23.696Z,100504.81
2023-03-06T06:54:52.400Z,100506.09
2023-03-06T06:57:19.227Z,100502.88
2023-03-06T06:59:45.865Z,100505.00
2023-03-06T07:02:17.636Z,100504.75
2023-03-06T07:05:00.659Z,100505.41
2023-03-06T07:07:32.887Z,100502.41
2023-03-06T07:09:59.696Z,100505.59
2023-03-06T07:12:26.838Z,100503.44
2023-03-06T07:14:55.996Z,100498.66
2023-03-06T07:17:22.703Z,100503.53
2023-03-06T07:19:49.777Z,100500.63
2023-03-06T07:22:21.294Z,100500.44
2023-03-06T07:24:48.277Z,100506.59
2023-03-06T07:27:15.119Z,100499.34
2023-03-06T07:29:45.063Z,100504.22
2023-03-06T07:32:12.172Z,100501.31
2023-03-06T07:34:39.187Z,100503.88
2023-03-06T07:39:46.513Z,100495.94
2023-03-06T07:42:14.053Z,100498.25
2023-03-06T07:44:40.889Z,100506.69
2023-03-06T07:47:10.127Z,100507.19
2023-03-06T07:49:39.494Z,100518.25
2023-03-06T07:52:06.302Z,100521.94
2023-03-06T07:54:35.268Z,100520.16
2023-03-06T07:57:03.043Z,100527.47
2023-03-06T07:59:29.927Z,100532.13
2023-03-06T08:01:57.762Z,100533.38
2023-03-06T08:04:24.478Z,100535.09
2023-03-06T08:07:11.913Z,100536.72
2023-03-06T08:09:38.544Z,100539.78
2023-03-06T08:12:05.458Z,100540.03
2023-03-06T08:14:35.977Z,100540.16
2023-03-06T08:17:03.781Z,100547.34
2023-03-06T08:19:30.464Z,100549.03
2023-03-06T08:21:57.218Z,100549.75
2023-03-06T08:24:23.960Z,100547.81
2023-03-06T08:26:51.572Z,100553.88
2023-03-06T08:29:18.271Z,100557.13
2023-03-06T08:31:46.533Z,100548.72
2023-03-06T08:34:16.434Z,100547.31
2023-03-06T08:36:43.277Z,100548.84
2023-03-06T08:39:10.046Z,100549.66
2023-03-06T08:41:38.342Z,100545.84
2023-03-06T08:44:09.214Z,100544.50
2023-03-06T08:46:35.856Z,100542.47
2023-03-06T08:49:02.756Z,100544.22
2023-03-06T08:51:29.565Z,100548.53
2023-03-06T08:53:56.748Z,100549.84
2023-03-06T08:56:31.701Z,100553.44
2023-03-06T08:59:03.736Z,100546.28
2023-03-06T09:01:32.808Z,100549.13
2023-03-06T09:04:01.897Z,100543.94
2023-03-06T09:06:34.192Z,100550.44
2023-03-06T09:09:01.014Z,100553.28
2023-03-06T09:11:28.807Z,100554.47
2023-03-06T09:13:56.452Z,100555.63
2023-03-06T09:16:24.116Z,100554.22
2023-03-06T09:18:52.986Z,100557.34
2023-03-06T09:21:21.579Z,100555.25
2023-03-06T09:23:51.389Z,100557.63
2023-03-06T09:26:18.681Z,100556.50
2023-03-06T09:28:45.306Z,100556.09
2023-03-06T09:31:15.804Z,100561.59
2023-03-06T09:33:42.861Z,100557.53
2023-03-06T09:36:14.618Z,100552.44
2023-03-06T09:38:41.208Z,100551.88
2023-03-06T09:41:32.029Z,100554.13
2023-03-06T09:44:14.711Z,100550.31
2023-03-06T09:47:17.426Z,100554.56
2023-03-06T09:49:55.829Z,100546.06
2023-03-06T09:52:49.432Z,100547.47
2023-03-06T09:55:15.965Z,100542.69
2023-03-06T09:57:52.567Z,100541.22
2023-03-06T10:00:25.160Z,100533.88
2023-03-06T10:03:06.644Z,100534.44
2023-03-06T10:05:38.450Z,100536.69
2023-03-06T10:08:51.536Z,100524.78
2023-03-06T10:11:38.299Z,100532.44
2023-03-06T10:14:35.845Z,100534.13
2023-03-06T10:17:02.839Z,100530.59
2023-03-06T10:19:34.824Z,100531.31
2023-03-06T10:22:01.322Z,100530.47
2023-03-06T10:24:49.456Z,100529.19
2023-03-06T10:27:38.009Z,100532.41
2023-03-06T10:30:10.925Z,100533.09
2023-03-06T10:32:49.022Z,100527.44
2023-03-06T10:35:20.056Z,100530.84
2023-03-06T10:37:46.751Z,100526.16
2023-03-06T10:40:17.272Z,100524.03
2023-03-06T10:42:44.076Z,100522.22
2023-03-06T10:45:14.882Z,100520.50
2023-03-06T10:47:42.089Z,100523.31
2023-03-06T10:50:22.686Z,100522.22
2023-03-06T10:53:05.841Z,100519.38
2023-03-06T10:55:36.437Z,100513.72
2023-03-06T10:58:35.749Z,100517.81
2023-03-06T11:01:17.348Z,100521.19
2023-03-06T11:03:44.223Z,100516.19
2023-03-06T11:06:37.146Z,100515.75
2023-03-06T11:09:24.467Z,100508.56
2023-03-06T11:12:22.680Z,100504.84
2023-03-06T11:15:07.649Z,100506.25
2023-03-06T11:17:55.360Z,100499.56
2023-03-06T11:20:41.262Z,100490.47
2023-03-06T11:23:42.589Z,100488.66
2023-03-06T11:26:20.134Z,100494.88
2023-03-06T11:29:13.530Z,100490.34
2023-03-06T11:32:08.479Z,100483.97
2023-03-06T11:34:58.109Z,100483.78
2023-03-06T11:37:48.235Z,100485.19
2023-03-06T11:40:24.024Z,100482.22
2023-03-06T11:43:05.942Z,100478.22
2023-03-06T11:45:52.493Z,100471.81
2023-03-06T11:48:26.235Z,100471.53
2023-03-06T11:51:15.110Z,100467.56
2023-03-06T11:53:41.890Z,100465.38
2023-03-06T11:56:32.293Z,100450.09
2023-03-06T11:59:08.033Z,100445.69
2023-03-06T12:01:49.668Z,100434.06
2023-03-06T12:04:46.481Z,100429.38
2023-03-06T12:07:21.961Z,100422.59
2023-03-06T12:09:56.136Z,100415.34
2023-03-06T12:12:38.184Z,100420.44
2023-03-06T12:15:08.081Z,100416.59
2023-03-06T12:17:51.511Z,100407.34
2023-03-06T12:20:39.362Z,100401.97
2023-03-06T12:23:24.523Z,100400.28
2023-03-06T12:26:29.842Z,100400.59
2023-03-06T12:29:30.421Z,100390.97
2023-03-06T12:32:22.068Z,100381.03
2023-03-06T12:34:57.558Z,100381.03
2023-03-06T12:37:32.038Z,100384.41
2023-03-06T12:40:16.774Z,100378.19
2023-03-06T12:42:58.640Z,100380.34
2023-03-06T12:45:33.892Z,100372.56
2023-03-06T12:48:06.080Z,100368.50
2023-03-06T12:50:38.113Z,100369.66
2023-03-06T12:53:14.589Z,100370.50
2023-03-06T12:55:48.720Z,100362.41
2023-03-06T12:58:57.240Z,100362.09
2023-03-06T13:01:51.448Z,100352.19
2023-03-06T13:04:32.296Z,100352.19
2023-03-06T13:07:01.944Z,100351.31
2023-03-06T13:10:13.313Z,100342.53
2023-03-06T13:13:14.027Z,100337.16
2023-03-06T13:16:33.290Z,100332.09
2023-03-06T13:19:19.025Z,100330.56
2023-03-06T13:24:44.021Z,100330.16
2023-03-06T13:27:13.234Z,100323.25
2023-03-06T13:29:39.786Z,100329.94
2023-03-06T13:32:16.669Z,100327.38
2023-03-06T13:34:48.557Z,100322.88
2023-03-06T13:37:23.698Z,100322.00
2023-03-06T13:40:40.653Z,100308.53
2023-03-06T13:43:09.947Z,100319.16
2023-03-06T13:45:45.071Z,100309.41
2023-03-06T13:48:45.062Z,100308.72
2023-03-06T13:51:22.920Z,100300.63
2023-03-06T13:54:13.951Z,100299.75
2023-03-06T13:57:15.222Z,100304.44
2023-03-06T14:00:19.389Z,100303.94
2023-03-06T14:03:01.134Z,100293.78
2023-03-06T14:05:48.397Z,100285.16
2023-03-06T14:08:21.980Z,100288.00
2023-03-06T14:10:59.825Z,100285.63
2023-03-06T14:13:35.191Z,100288.31
2023-03-06T14:16:13.274Z,100279.69
2023-03-06T14:18:51.110Z,100284.38
2023-03-06T14:21:34.876Z,100283.78
2023-03-06T14:24:03.633Z,100283.09
2023-03-06T14:26:39.544Z,100288.47
2023-03-06T14:29:21.420Z,100276.03
2023-03-06T14:31:59.288Z,100278.03
2023-03-06T14:34:31.319Z,100269.97
2023-03-06T14:37:05.490Z,100278.16
2023-03-06T14:39:39.810Z,100268.44
2023-03-06T14:42:17.080Z,100265.88
2023-03-06T14:44:44.317Z,100267.03
2023-03-06T14:47:27.410Z,100264.63
2023-03-06T14:50:19.328Z,100264.09
2023-03-06T14:52:46.165Z,100258.31
2023-03-06T14:55:19.139Z,100259.47
2023-03-06T14:57:48.176Z,100263.47
2023-03-06T15:00:22.986Z,100256.69
2023-03-06T15:02:51.740Z,100261.50
2023-03-06T15:05:24.921Z,100258.13
2023-03-06T15:07:52.858Z,100255.88
2023-03-06T15:10:31.291Z,100248.97
2023-03-06T15:13:25.910Z,100257.19
2023-03-06T15:16:07.068Z,100252.13
2023-03-06T15:18:39.253Z,100254.94
2023-03-06T15:21:07.844Z,100251.41
2023-03-06T15:23:40.215Z,100257.78
2023-03-06T15:26:29.238Z,100250.72
2023-03-06T15:29:09.073Z,100243.81
2023-03-06T15:31:47.300Z,100258.53
2023-03-06T15:34:16.125Z,100248.75
2023-03-06T15:36:47.365Z,100256.13
2023-03-06T15:39:39.857Z,100256.44
2023-03-06T15:42:24.981Z,100243.28
2023-03-06T15:44:56.233Z,100252.63
2023-03-06T15:47:23.727Z,100251.09
2023-03-06T15:49:53.217Z,100254.94
2023-03-06T15:52:21.700Z,100250.72
2023-03-06T15:54:48.403Z,100250.72
2023-03-06T15:57:28.270Z,100249.13
2023-03-06T15:59:56.257Z,100251.81
2023-03-06T16:02:25.626Z,100251.81
2023-03-06T16:04:52.516Z,100246.63
2023-03-06T16:07:21.865Z,100247.59
2023-03-06T16:09:48.546Z,100254.97
2023-03-06T16:12:16.190Z,100255.28
2023-03-06T16:14:42.933Z,100255.53
2023-03-06T16:17:12.454Z,100257.53
2023-03-06T16:19:39.532Z,100250.63
2023-03-06T16:22:06.298Z,100262.38
2023-03-06T16:24:34.362Z,100251.91
2023-03-06T16:27:01.916Z,100249.53
2023-03-06T16:29:29.441Z,100248.81
2023-03-06T16:31:57.436Z,100249.78
2023-03-06T16:34:24.334Z,100244.72
2023-03-06T16:36:53.615Z,100247.69
2023-03-06T16:39:22.273Z,100245.13
2023-03-06T16:41:49.706Z,100238.22
2023-03-06T16:44:16.637Z,100238.53
2023-03-06T16:46:48.346Z,100243.16
2023-03-06T16:49:23.734Z,100238.06
2023-03-06T16:51:51.066Z,100239.22
2023-03-06T16:54:17.954Z,100242.91
2023-03-06T16:56:45.124Z,100241.31
2023-03-06T16:59:12.521Z,100240.78
2023-03-06T17:01:40.741Z,100248.97
2023-03-06T17:04:07.768Z,100253.66
2023-03-06T17:06:34.462Z,100258.44
2023-03-06T17:09:01.067Z,100256.91
2023-03-06T17:11:27.770Z,100260.84
2023-03-06T17:13:55.328Z,100260.28
2023-03-06T17:16:22.288Z,100258.75
2023-03-06T17:18:49.647Z,100259.03
2023-03-06T17:21:16.769Z,100262.69
2023-03-06T17:23:44.585Z,100253.09
2023-03-06T17:26:20.033Z,100258.47
2023-03-06T17:28:47.461Z,100259.59
2023-03-06T17:31:18.366Z,100263.44
2023-03-06T17:33:45.513Z,100265.25
2023-03-06T17:36:14.486Z,100268.09
2023-03-06T17:38:41.845Z,100275.25
2023-03-06T17:41:11.814Z,100271.75
2023-03-06T17:43:39.470Z,100274.56
2023-03-06T17:46:08.451Z,100282.59
2023-03-06T17:48:35.681Z,100279.22
2023-03-06T17:51:03.427Z,100276.69
2023-03-06T17:53:30.149Z,100289.25
2023-03-06T17:55:59.775Z,100282.19
2023-03-06T17:58:27.075Z,100286.84
2023-03-06T18:00:53.851Z,100280.66
2023-03-06T18:03:20.776Z,100291.38
2023-03-06T18:05:47.310Z,100294.19
2023-03-06T18:08:13.888Z,100288.97
2023-03-06T18:10:41.576Z,100287.28
2023-03-06T18:13:09.212Z,100293.50
2023-03-06T18:15:40.066Z,100292.78
2023-03-06T18:18:07.664Z,100291.09
2023-03-06T18:20:34.919Z,100292.06
2023-03-06T18:23:03.697Z,100290.38
2023-03-06T18:25:31.678Z,100294.03
2023-03-06T18:27:58.721Z,100298.56
2023-03-06T18:30:25.687Z,100299.41
2023-03-06T18:32:52.541Z,100298.56
2023-03-06T18:35:19.290Z,100308.47
2023-03-06T18:37:46.011Z,100306.75
2023-03-06T18:40:13.134Z,100310.44
2023-03-06T18:42:39.723Z,100312.41
2023-03-06T18:45:07.013Z,100314.38
2023-03-06T18:47:33.815Z,100315.34
2023-03-06T18:50:00.426Z,100313.66
2023-03-06T18:52:27.085Z,100318.03
2023-03-06T18:54:53.756Z,100319.28
2023-03-06T18:57:20.564Z,100319.72
2023-03-06T18:59:50.323Z,100321.81
2023-03-06T19:02:17.336Z,100329.16
2023-03-06T19:04:44.135Z,100332.69
2023-03-06T19:07:13.263Z,100330.97
2023-03-06T19:09:43.978Z,100334.78
2023-03-06T19:12:16.193Z,100337.72
2023-03-06T19:14:48.504Z,100338.03
2023-03-06T19:17:15.449Z,100332.91
2023-03-06T19:19:42.538Z,100333.78
2023-03-06T19:22:10.234Z,100329.56
2023-03-06T19:24:36.859Z,100334.03
2023-03-06T19:27:03.403Z,100333.91
2023-03-06T19:29:29.964Z,100330.66
2023-03-06T19:31:57.536Z,100339.81
2023-03-06T19:34:24.283Z,100336.28
2023-03-06T19:36:54.109Z,100339.09
2023-03-06T19:39:20.828Z,100333.16
2023-03-06T19:41:47.921Z,100338.50
2023-03-06T19:44:16.328Z,100340.34
2023-03-06T19:46:43.741Z,100337.81
2023-03-06T19:49:16.950Z,100330.88
2023-03-06T19:51:43.969Z,100331.88
2023-03-06T19:54:12.216Z,100335.66
2023-03-06T19:56:38.940Z,100337.50
2023-03-06T19:59:05.648Z,100340.47
2023-03-06T20:01:34.289Z,100345.81
2023-03-06T20:04:01.434Z,100347.50
2023-03-06T20:06:31.357Z,100355.09
2023-03-06T20:08:58.064Z,100358.31
2023-03-06T20:11:27.992Z,100356.38
2023-03-06T20:13:54.715Z,100356.94
2023-03-06T20:16:21.301Z,100361.13
2023-03-06T20:18:50.196Z,100354.31
2023-03-06T20:21:17.023Z,100353.16
2023-03-06T20:23:46.157Z,100358.19
2023-03-06T20:26:14.302Z,100356.75
2023-03-06T20:28:41.914Z,100359.81
2023-03-06T20:31:17.192Z,100356.41
2023-03-06T20:33:45.174Z,100355.00
2023-03-06T20:36:13.231Z,100351.00
2023-03-06T20:38:40.039Z,100349.66
2023-03-06T20:41:09.372Z,100352.63
2023-03-06T20:43:36.062Z,100357.25
2023-03-06T20:46:04.175Z,100353.13
2023-03-06T20:48:30.860Z,100346.47
2023-03-06T20:51:06.149Z,100354.88
2023-03-06T20:53:35.568Z,100364.97
2023-03-06T20:56:02.572Z,100372.16
2023-03-06T20:58:32.573Z,100370.84
2023-03-06T21:01:02.002Z,100370.38
2023-03-06T21:03:29.334Z,100365.16
2023-03-06T21:05:56.945Z,100361.03
2023-03-06T21:08:26.081Z,100364.19
2023-03-06T21:10:55.806Z,100363.75
2023-03-06T21:13:22.631Z,100366.16
2023-03-06T21:15:52.617Z,100366.03
2023-03-06T21:18:31.444Z,100359.56
2023-03-06T21:20:58.222Z,100363.09
2023-03-06T21:23:25.054Z,100366.63
2023-03-06T21:25:52.886Z,100350.69
2023-03-06T21:28:26.225Z,100357.63
2023-03-06T21:30:52.870Z,100354.94
2023-03-06T21:33:27.116Z,100358.22
2023-03-06T21:35:59.227Z,100362.47
2023-03-06T21:38:26.055Z,100362.47
2023-03-06T21:40:52.731Z,100360.78
2023-03-06T21:43:21.127Z,100359.34
2023-03-06T21:45:49.782Z,100355.56
2023-03-06T21:48:17.408Z,100364.13
2023-03-06T21:50:44.336Z,100366.19
2023-03-06T21:53:11.144Z,100364.47
2023-03-06T21:55:46.658Z,100368.13
2023-03-06T21:58:13.529Z,100359.13
2023-03-06T22:00:40.796Z,100365.69
2023-03-06T22:03:09.943Z,100372.25
2023-03-06T22:05:36.603Z,100370.81
2023-03-06T22:08:05.256Z,100363.16
2023-03-06T22:10:31.789Z,100382.97
2023-03-06T22:12:58.359Z,100362.81
2023-03-06T22:15:27.823Z,100371.22
2023-03-06T22:17:58.400Z,100366.25
2023-03-06T22:20:25.174Z,100366.56
2023-03-06T22:22:51.822Z,100367.66
2023-03-06T22:25:18.643Z,100365.22
2023-03-06T22:27:45.822Z,100364.38
2023-03-06T22:30:13.279Z,100359.16
2023-03-06T22:32:40.004Z,100358.06
2023-03-06T22:35:13.400Z,100359.78
2023-03-06T22:37:42.879Z,100361.34
2023-03-06T22:40:10.666Z,100354.81
2023-03-06T22:42:37.376Z,100354.56
2023-03-06T22:45:04.586Z,100362.34
2023-03-06T22:47:31.177Z,100360.50
2023-03-06T22:49:57.985Z,100366.47
2023-03-06T22:52:27.651Z,100360.88
2023-03-06T22:54:57.880Z,100357.22
2023-03-06T22:57:24.605Z,100361.13
2023-03-06T22:59:51.381Z,100366.47
2023-03-06T23:02:27.189Z,100364.88
2023-03-06T23:04:53.893Z,100357.00
2023-03-06T23:07:23.700Z,100363.91
2023-03-06T23:09:53.714Z,100353.09
2023-03-06T23:12:20.349Z,100348.97
2023-03-06T23:14:49.747Z,100345.69
2023-03-06T23:17:19.378Z,100356.38
2023-03-06T23:19:49.329Z,100356.38
2023-03-06T23:22:16.151Z,100347.72
2023-03-06T23:24:42.963Z,100346.16
2023-03-06T23:27:09.776Z,100342.03
2023-03-06T23:29:37.482Z,100348.47
2023-03-06T23:32:04.500Z,100344.34
2023-03-06T23:34:31.068Z,100347.25
2023-03-06T23:36:57.634Z,100345.28
2023-03-06T23:39:24.164Z,100350.16
2023-03-06T23:41:50.698Z,100346.91
2023-03-06T23:44:17.318Z,100344.56
2023-03-06T23:46:43.845Z,100349.19
2023-03-06T23:49:10.828Z,100354.03
2023-03-06T23:51:37.405Z,100352.09
2023-03-06T23:54:04.101Z,100347.25
2023-03-06T23:56:30.592Z,100350.91
2023-03-06T23:58:57.204Z,100351.84
